Cuneyt Solakoglu — TCTN4 — position and weather

sailwx.info

Track history (hours):
 
Tides and Currents Weather Stations Pressure Air Temp Water Temp Dewpoint Dewpoint Depression Visibility Wind Speed Wind Dir Waves Ship Positions

Cuneyt Solakoglu

Last reported at 2018-Jan-19 03:52 UTC. Time now 2018-Jan-19 07:55 UTC.
Position N 36°50' E 023°32'.

Length 223 m; draft 6.7 m.

Type: Ship (hazmat cat A). MMSI: 271002676.

Date/timePositionNaut miles runAvg speedWind from/ knotsBaromVisibWave heightAir tempDewpointWater temp
2018-Jan-19 03:52N 36°50' E 023°32'820.1
2018-Jan-19 03:27N 36°57' E 023°38'919.9
2018-Jan-19 03:00N 37°05' E 023°44'1019.8
2018-Jan-19 02:30N 37°13' E 023°51'1019.8
2018-Jan-19 02:00N 37°21' E 023°58'1019.8
2018-Jan-19 01:30N 37°30' E 024°04'1019.4
2018-Jan-19 01:00N 37°38' E 024°11'1019.6
2018-Jan-19 00:30N 37°45' E 024°19'1019.5
2018-Jan-19 00:00N 37°52' E 024°28'26417.2
2018-Jan-18 08:36N 40°52' E 028°38'219.2
2018-Jan-18 08:30N 40°52' E 028°41'1018.8
2018-Jan-18 07:58N 40°50' E 028°53'918.5
2018-Jan-18 07:29N 40°48' E 029°05'817.1
2018-Jan-18 07:00N 40°51' E 029°15'1 1.2
2018-Jan-18 06:23N 40°51' E 029°16'0 0.0
2018-Jan-18 05:53N 40°51' E 029°16'0 0.0
2018-Jan-18 05:29N 40°51' E 029°16'0 0.0
2018-Jan-18 04:59N 40°51' E 029°16'0 0.0
2018-Jan-18 04:29N 40°51' E 029°16'0 0.0
2018-Jan-18 03:52N 40°51' E 029°16'0 0.0
2018-Jan-18 03:28N 40°51' E 029°16'0 0.0
2018-Jan-18 02:58N 40°51' E 029°16'0 0.0
2018-Jan-18 02:28N 40°51' E 029°16'0 0.0
2018-Jan-18 01:58N 40°51' E 029°16'0 0.0
2018-Jan-18 01:27N 40°51' E 029°16'0 0.0
2018-Jan-18 00:57N 40°51' E 029°16'0 0.0
2018-Jan-18 00:00N 40°51' E 029°16'0 0.0
2018-Jan-17 23:58N 40°51' E 029°16'  
2018-Jan-12 05:13N 36°50' E 023°32'619.9
2018-Jan-12 04:56N 36°55' E 023°36'820.1
2018-Jan-12 04:30N 37°02' E 023°42'1019.9
2018-Jan-12 04:00N 37°10' E 023°48'1019.9
2018-Jan-12 03:29N 37°19' E 023°55'1020.0
2018-Jan-12 03:00N 37°27' E 024°02'1019.7
2018-Jan-12 02:30N 37°35' E 024°09'1120.1
2018-Jan-12 01:58N 37°43' E 024°17'920.1
2018-Jan-12 01:30N 37°50' E 024°26'1020.1
2018-Jan-12 01:00N 37°57' E 024°35'3 0.1
2018-Jan-10 03:51N 37°56' E 024°39'719.4
2018-Jan-10 03:30N 37°50' E 024°35'1019.3
2018-Jan-10 03:00N 37°42' E 024°29'1019.3
2018-Jan-10 02:30N 37°34' E 024°22'1019.3
2018-Jan-10 02:00N 37°26' E 024°15'1019.6
2018-Jan-10 01:30N 37°19' E 024°07'1119.3
2018-Jan-10 00:55N 37°10' E 023°58'819.2
2018-Jan-10 00:30N 37°04' E 023°51'1019.5
2018-Jan-10 00:00N 36°57' E 023°44'2319.5
2018-Jan-09 22:50N 36°39' E 023°26'1719.4
2018-Jan-09 21:57N 36°25' E 023°13'919.2
2018-Jan-09 21:28N 36°24' E 023°02'1019.5
2018-Jan-09 20:58N 36°24' E 022°49'1019.4
2018-Jan-09 20:28N 36°22' E 022°38'919.0
2018-Jan-09 20:00N 36°21' E 022°27'30719.4
2018-Jan-09 04:09N 37°46' E 016°16'  
Track history (hours):
 
Tides and Currents Weather Stations Pressure Air Temp Water Temp Dewpoint Dewpoint Depression Visibility Wind Speed Wind Dir Waves Ship Positions

Cuneyt Solakoglu

Last reported at 2018-Jan-19 03:52 UTC. Time now 2018-Jan-19 07:55 UTC.
Position N 36°50' E 023°32'.

Length 223 m; draft 6.7 m.

Type: Ship (hazmat cat A). MMSI: 271002676.

Date/timePositionNaut miles runAvg speedWind from/ knotsBaromVisibWave heightAir tempDewpointWater temp
2018-Jan-19 03:52N 36°50' E 023°32'820.1
2018-Jan-19 03:27N 36°57' E 023°38'919.9
2018-Jan-19 03:00N 37°05' E 023°44'1019.8
2018-Jan-19 02:30N 37°13' E 023°51'1019.8
2018-Jan-19 02:00N 37°21' E 023°58'1019.8
2018-Jan-19 01:30N 37°30' E 024°04'1019.4
2018-Jan-19 01:00N 37°38' E 024°11'1019.6
2018-Jan-19 00:30N 37°45' E 024°19'1019.5
2018-Jan-19 00:00N 37°52' E 024°28'26417.2
2018-Jan-18 08:36N 40°52' E 028°38'219.2
2018-Jan-18 08:30N 40°52' E 028°41'1018.8
2018-Jan-18 07:58N 40°50' E 028°53'918.5
2018-Jan-18 07:29N 40°48' E 029°05'817.1
2018-Jan-18 07:00N 40°51' E 029°15'1 1.2
2018-Jan-18 06:23N 40°51' E 029°16'0 0.0
2018-Jan-18 05:53N 40°51' E 029°16'0 0.0
2018-Jan-18 05:29N 40°51' E 029°16'0 0.0
2018-Jan-18 04:59N 40°51' E 029°16'0 0.0
2018-Jan-18 04:29N 40°51' E 029°16'0 0.0
2018-Jan-18 03:52N 40°51' E 029°16'0 0.0
2018-Jan-18 03:28N 40°51' E 029°16'0 0.0
2018-Jan-18 02:58N 40°51' E 029°16'0 0.0
2018-Jan-18 02:28N 40°51' E 029°16'0 0.0
2018-Jan-18 01:58N 40°51' E 029°16'0 0.0
2018-Jan-18 01:27N 40°51' E 029°16'0 0.0
2018-Jan-18 00:57N 40°51' E 029°16'0 0.0
2018-Jan-18 00:00N 40°51' E 029°16'0 0.0
2018-Jan-17 23:58N 40°51' E 029°16'  
2018-Jan-12 05:13N 36°50' E 023°32'619.9
2018-Jan-12 04:56N 36°55' E 023°36'820.1
2018-Jan-12 04:30N 37°02' E 023°42'1019.9
2018-Jan-12 04:00N 37°10' E 023°48'1019.9
2018-Jan-12 03:29N 37°19' E 023°55'1020.0
2018-Jan-12 03:00N 37°27' E 024°02'1019.7
2018-Jan-12 02:30N 37°35' E 024°09'1120.1
2018-Jan-12 01:58N 37°43' E 024°17'920.1
2018-Jan-12 01:30N 37°50' E 024°26'1020.1
2018-Jan-12 01:00N 37°57' E 024°35'3 0.1
2018-Jan-10 03:51N 37°56' E 024°39'719.4
2018-Jan-10 03:30N 37°50' E 024°35'1019.3
2018-Jan-10 03:00N 37°42' E 024°29'1019.3
2018-Jan-10 02:30N 37°34' E 024°22'1019.3
2018-Jan-10 02:00N 37°26' E 024°15'1019.6
2018-Jan-10 01:30N 37°19' E 024°07'1119.3
2018-Jan-10 00:55N 37°10' E 023°58'819.2
2018-Jan-10 00:30N 37°04' E 023°51'1019.5
2018-Jan-10 00:00N 36°57' E 023°44'2319.5
2018-Jan-09 22:50N 36°39' E 023°26'1719.4
2018-Jan-09 21:57N 36°25' E 023°13'919.2
2018-Jan-09 21:28N 36°24' E 023°02'1019.5
2018-Jan-09 20:58N 36°24' E 022°49'1019.4
2018-Jan-09 20:28N 36°22' E 022°38'919.0
2018-Jan-09 20:00N 36°21' E 022°27'30719.4
2018-Jan-09 04:09N 37°46' E 016°16'  

Dump ship's entire track history